Time;durP1;ratioP1;P1;durP2;ratioP2;P2;SDS_P1;SDS_P2;PMS_P1;PMS_P2;Temp;Humidity;BMP_temperature;BMP_pressure;BME280_temperature;BME280_humidity;BME280_pressure;Samples;Min_cycle;Max_cycle;Signal;HPM_P1;HPM_P2
2022/10/16 00:00:00;;;;;;;5.78;3.10;;;13.10;61.60;;;;;;5043767;28;20043;-75
2022/10/16 00:02:26;;;;;;;5.15;3.60;;;13.10;61.60;;;;;;5043888;28;20488;-76
2022/10/16 00:04:54;;;;;;;5.25;3.47;;;13.00;61.60;;;;;;5043781;28;20095;-76
2022/10/16 00:07:20;;;;;;;6.97;2.83;;;13.00;61.60;;;;;;5044162;28;20510;-77
2022/10/16 00:09:46;;;;;;;6.15;3.50;;;13.00;61.60;;;;;;5034637;28;20045;-77
2022/10/16 00:12:12;;;;;;;5.75;3.30;;;13.00;61.50;;;;;;5042888;28;20147;-77
2022/10/16 00:14:40;;;;;;;4.78;3.20;;;13.00;61.40;;;;;;5043066;28;20512;-76
2022/10/16 00:17:06;;;;;;;5.63;3.15;;;13.00;61.60;;;;;;5042291;28;20048;-76
2022/10/16 00:19:32;;;;;;;5.22;3.50;;;13.00;61.70;;;;;;5043740;28;20029;-77
2022/10/16 00:21:58;;;;;;;3.40;2.90;;;12.90;61.60;;;;;;5043435;28;21026;-76
2022/10/16 00:24:42;;;;;;;7.60;3.20;;;13.00;61.60;;;;;;5042453;28;20044;-76
2022/10/16 00:27:08;;;;;;;9.27;3.47;;;13.00;61.70;;;;;;5042670;28;20407;-75
2022/10/16 00:29:34;;;;;;;6.00;3.55;;;12.90;61.80;;;;;;5043722;28;20036;-77
2022/10/16 00:32:00;;;;;;;6.00;3.33;;;12.90;61.80;;;;;;5043002;28;20056;-77
2022/10/16 00:34:26;;;;;;;6.07;3.17;;;12.90;61.80;;;;;;5043181;28;20552;-77
2022/10/16 00:36:52;;;;;;;5.60;3.38;;;12.80;61.90;;;;;;5043884;28;20120;-76
2022/10/16 00:39:17;;;;;;;6.38;3.00;;;12.90;61.90;;;;;;5042453;28;20122;-76
2022/10/16 00:41:43;;;;;;;7.05;3.45;;;12.90;61.90;;;;;;5040310;28;20025;-76
2022/10/16 00:44:43;;;;;;;6.95;3.47;;;12.90;61.80;;;;;;5041707;28;20495;-77
2022/10/16 00:47:18;;;;;;;6.38;3.50;;;12.80;61.80;;;;;;5040823;28;20533;-75
2022/10/16 00:49:44;;;;;;;4.93;3.33;;;12.80;61.80;;;;;;5040797;28;20349;-76
2022/10/16 00:52:10;;;;;;;6.43;3.50;;;12.80;61.90;;;;;;5040488;28;20032;-75
2022/10/16 00:54:36;;;;;;;6.10;3.33;;;12.80;61.80;;;;;;5040720;28;20132;-76
2022/10/16 00:57:05;;;;;;;4.70;3.60;;;12.80;61.90;;;;;;5040028;28;20582;-75
2022/10/16 00:59:38;;;;;;;3.78;3.20;;;12.80;61.90;;;;;;5040782;28;20041;-75
2022/10/16 01:02:06;;;;;;;6.60;3.63;;;12.70;61.90;;;;;;5058351;28;20123;-76
2022/10/16 01:04:40;;;;;;;7.85;3.47;;;12.70;62.00;;;;;;5040680;28;20034;-77
2022/10/16 01:07:33;;;;;;;5.68;3.08;;;12.70;62.00;;;;;;5039897;28;20045;-75
2022/10/16 01:10:11;;;;;;;7.72;3.53;;;12.70;62.10;;;;;;5038968;28;20122;-76
2022/10/16 01:13:06;;;;;;;5.78;3.53;;;12.70;62.00;;;;;;5039792;28;21067;-76
2022/10/16 01:15:47;;;;;;;5.85;3.75;;;12.70;62.10;;;;;;5038767;28;20566;-75
2022/10/16 01:19:04;;;;;;;5.10;3.20;;;12.70;62.00;;;;;;5055545;28;20033;-75
2022/10/16 01:21:35;;;;;;;6.63;3.60;;;12.60;62.10;;;;;;4962025;28;20031;-76
2022/10/16 01:24:06;;;;;;;6.00;3.55;;;12.60;61.90;;;;;;4962199;28;20445;-75
2022/10/16 01:26:57;;;;;;;6.93;3.88;;;12.60;61.90;;;;;;4962249;28;20054;-77
2022/10/16 01:29:23;;;;;;;7.80;3.20;;;12.60;62.00;;;;;;4946393;28;20122;-76
2022/10/16 01:31:55;;;;;;;7.47;3.03;;;12.60;61.90;;;;;;4961736;28;20134;-75
2022/10/16 01:34:32;;;;;;;6.93;3.60;;;12.60;62.10;;;;;;4961826;28;20109;-76
2022/10/16 01:37:05;;;;;;;6.22;3.47;;;12.60;62.30;;;;;;4962265;28;20130;-76
2022/10/16 01:39:35;;;;;;;6.18;3.47;;;12.60;62.20;;;;;;4946555;28;20031;-76
2022/10/16 01:42:24;;;;;;;5.05;3.63;;;12.50;62.10;;;;;;4962800;28;20035;-76
2022/10/16 01:44:52;;;;;;;5.63;3.47;;;12.50;62.20;;;;;;4961722;28;20426;-76
2022/10/16 01:47:24;;;;;;;3.92;2.90;;;12.50;62.20;;;;;;4961886;28;20606;-76
2022/10/16 01:49:52;;;;;;;4.63;3.13;;;12.50;62.10;;;;;;4960686;28;20298;-76
2022/10/16 01:52:23;;;;;;;8.55;3.78;;;12.50;62.10;;;;;;4963088;28;20027;-76
2022/10/16 01:54:54;;;;;;;6.10;3.70;;;12.50;62.00;;;;;;4962121;28;20062;-74
2022/10/16 01:57:21;;;;;;;4.93;3.28;;;12.50;62.10;;;;;;4997412;28;20065;-76
2022/10/16 01:59:54;;;;;;;5.78;3.58;;;12.40;62.00;;;;;;5039690;28;20048;-75
2022/10/16 02:02:22;;;;;;;4.82;3.60;;;12.40;62.10;;;;;;5040900;28;20036;-77
2022/10/16 02:05:05;;;;;;;4.47;3.42;;;12.40;62.20;;;;;;5039842;28;20029;-77
2022/10/16 02:07:31;;;;;;;6.13;3.92;;;12.40;62.10;;;;;;5055329;28;20025;-76
2022/10/16 02:09:57;;;;;;;5.82;3.42;;;12.40;62.00;;;;;;5043380;28;20500;-75
2022/10/16 02:12:29;;;;;;;5.50;3.67;;;12.40;62.00;;;;;;5043901;28;20029;-76
2022/10/16 02:14:55;;;;;;;3.67;3.03;;;12.40;62.00;;;;;;5046902;28;20029;-75
2022/10/16 02:17:21;;;;;;;5.97;3.25;;;12.30;62.00;;;;;;5044287;28;20123;-75
2022/10/16 02:19:51;;;;;;;5.80;3.72;;;12.30;62.00;;;;;;5043633;28;20514;-75
2022/10/16 02:22:38;;;;;;;6.32;4.03;;;12.30;62.00;;;;;;5044777;28;20459;-75
2022/10/16 02:25:13;;;;;;;9.23;3.42;;;12.30;62.20;;;;;;5043777;28;20049;-75
2022/10/16 02:27:41;;;;;;;5.40;3.90;;;12.30;62.20;;;;;;5042607;28;20506;-75
2022/10/16 02:30:30;;;;;;;5.65;3.55;;;12.30;62.20;;;;;;5043224;28;20573;-75
2022/10/16 02:32:59;;;;;;;8.30;3.58;;;12.30;62.50;;;;;;5043806;28;20463;-76
2022/10/16 02:35:26;;;;;;;5.20;3.47;;;12.30;62.70;;;;;;5044561;28;20492;-74
2022/10/16 02:37:54;;;;;;;8.48;3.78;;;12.30;62.50;;;;;;5043395;28;20080;-75
2022/10/16 02:40:20;;;;;;;5.68;3.53;;;12.30;62.50;;;;;;5044213;28;20083;-75
2022/10/16 02:42:54;;;;;;;5.38;3.72;;;12.30;62.30;;;;;;5042902;28;20029;-74
2022/10/16 02:45:20;;;;;;;8.43;3.70;;;12.30;62.30;;;;;;5043643;28;20030;-75
2022/10/16 02:47:46;;;;;;;5.53;4.05;;;12.30;62.50;;;;;;5043849;28;20037;-74
2022/10/16 02:50:12;;;;;;;7.75;3.58;;;12.30;62.50;;;;;;5043173;28;20546;-74
2022/10/16 02:52:38;;;;;;;6.30;3.67;;;12.30;62.40;;;;;;5045068;28;20146;-75
2022/10/16 02:55:04;;;;;;;5.13;3.60;;;12.30;62.20;;;;;;5043549;28;20124;-75
2022/10/16 02:57:31;;;;;;;6.18;3.75;;;12.20;62.40;;;;;;5041532;28;20511;-74
2022/10/16 02:59:57;;;;;;;7.20;3.70;;;12.20;62.40;;;;;;5044017;28;20466;-75
2022/10/16 03:02:23;;;;;;;7.05;4.00;;;12.20;62.30;;;;;;5043810;28;20148;-76
2022/10/16 03:04:49;;;;;;;7.15;3.70;;;12.20;62.40;;;;;;5044267;28;20175;-74
2022/10/16 03:07:15;;;;;;;6.43;3.97;;;12.20;62.70;;;;;;5044562;28;20108;-76
2022/10/16 03:09:41;;;;;;;11.27;4.38;;;12.20;62.80;;;;;;5042260;28;20574;-75
2022/10/16 03:12:07;;;;;;;5.65;3.70;;;12.20;62.70;;;;;;5042462;28;20064;-77
2022/10/16 03:14:34;;;;;;;9.50;4.05;;;12.20;62.60;;;;;;5058966;28;20045;-74
2022/10/16 03:17:00;;;;;;;7.22;4.22;;;12.20;62.40;;;;;;5059881;28;20045;-74
2022/10/16 03:19:26;;;;;;;6.65;3.80;;;12.20;62.70;;;;;;5044461;28;20041;-73
2022/10/16 03:21:52;;;;;;;7.78;4.38;;;12.20;62.70;;;;;;5043638;28;20033;-74
2022/10/16 03:24:18;;;;;;;6.60;4.25;;;12.20;62.60;;;;;;5044681;28;20191;-75
2022/10/16 03:26:43;;;;;;;8.05;4.47;;;12.20;62.60;;;;;;5042627;28;20076;-75
2022/10/16 03:29:09;;;;;;;6.05;4.15;;;12.20;62.70;;;;;;5043726;28;20041;-73
2022/10/16 03:31:35;;;;;;;6.47;4.68;;;12.20;62.60;;;;;;5043516;28;20040;-74
2022/10/16 03:34:01;;;;;;;7.72;4.78;;;12.10;62.50;;;;;;5042381;28;20468;-73
2022/10/16 03:36:27;;;;;;;8.38;4.22;;;12.10;62.50;;;;;;5043440;28;20032;-74
2022/10/16 03:38:53;;;;;;;8.60;4.57;;;12.10;62.70;;;;;;5058852;28;20041;-74
2022/10/16 03:41:19;;;;;;;6.82;4.22;;;12.10;62.90;;;;;;5035397;28;20048;-74
2022/10/16 03:43:45;;;;;;;7.07;4.38;;;12.10;62.80;;;;;;5043623;28;20514;-74
2022/10/16 03:46:11;;;;;;;7.68;4.65;;;12.10;62.50;;;;;;5044848;28;20431;-77
2022/10/16 03:48:37;;;;;;;11.18;6.05;;;12.10;62.50;;;;;;5043892;28;20037;-76
2022/10/16 03:51:03;;;;;;;10.10;5.30;;;12.10;62.60;;;;;;5043582;28;20041;-77
2022/10/16 03:53:29;;;;;;;6.65;4.90;;;12.10;62.50;;;;;;5043065;28;20029;-76
2022/10/16 03:55:54;;;;;;;8.77;4.40;;;12.00;62.50;;;;;;5042497;28;20041;-75
2022/10/16 03:58:20;;;;;;;8.15;4.65;;;12.00;62.60;;;;;;5043734;28;20037;-75
2022/10/16 04:00:49;;;;;;;8.70;4.45;;;12.00;62.60;;;;;;5042111;28;20056;-74
2022/10/16 04:03:17;;;;;;;7.90;4.70;;;12.00;62.70;;;;;;5043032;28;20037;-77
2022/10/16 04:05:42;;;;;;;8.05;4.90;;;12.00;62.80;;;;;;5043096;28;20508;-76
2022/10/16 04:08:08;;;;;;;8.15;4.80;;;12.00;62.80;;;;;;5024424;28;20124;-77
2022/10/16 04:10:34;;;;;;;10.55;4.63;;;12.00;62.70;;;;;;5043278;28;20048;-77
2022/10/16 04:13:00;;;;;;;8.90;4.70;;;12.00;62.80;;;;;;5043425;28;20033;-77
2022/10/16 04:15:26;;;;;;;9.40;4.13;;;12.00;62.80;;;;;;5043763;28;20634;-76
2022/10/16 04:17:53;;;;;;;7.40;4.82;;;11.90;62.70;;;;;;5043030;28;20566;-77
2022/10/16 04:20:19;;;;;;;7.72;4.20;;;11.90;62.60;;;;;;5043143;28;20124;-77
2022/10/16 04:22:45;;;;;;;8.10;4.10;;;11.90;62.80;;;;;;5042722;28;20139;-78
2022/10/16 04:25:11;;;;;;;9.48;4.25;;;11.90;62.70;;;;;;5045076;28;20476;-76
2022/10/16 04:27:38;;;;;;;6.43;4.22;;;11.90;62.60;;;;;;5041656;28;20029;-76
2022/10/16 04:30:05;;;;;;;7.10;4.03;;;11.90;62.60;;;;;;5043625;28;20041;-78
2022/10/16 04:32:30;;;;;;;6.10;4.38;;;11.90;62.60;;;;;;5042616;28;20545;-77
2022/10/16 04:34:56;;;;;;;6.20;4.22;;;11.90;62.60;;;;;;5042618;28;20045;-77
2022/10/16 04:37:26;;;;;;;5.45;3.97;;;11.90;62.60;;;;;;5042566;28;20048;-76
2022/10/16 04:39:53;;;;;;;8.35;3.92;;;11.90;62.60;;;;;;5060879;28;20082;-77
2022/10/16 04:42:20;;;;;;;5.43;3.72;;;11.90;62.50;;;;;;5043492;28;20057;-77
2022/10/16 04:44:46;;;;;;;9.50;3.95;;;11.90;62.50;;;;;;5042740;28;20033;-75
2022/10/16 04:47:13;;;;;;;6.60;4.22;;;11.90;62.70;;;;;;5043619;28;20036;-76
2022/10/16 04:49:39;;;;;;;8.27;4.57;;;11.90;62.80;;;;;;5043268;28;20029;-76
2022/10/16 04:52:05;;;;;;;6.25;4.30;;;11.90;62.60;;;;;;5043003;28;20040;-76
2022/10/16 04:54:31;;;;;;;7.30;3.80;;;11.90;62.70;;;;;;5041676;28;20033;-75
2022/10/16 04:56:57;;;;;;;7.45;3.95;;;11.90;62.90;;;;;;5042756;28;20037;-76
2022/10/16 04:59:23;;;;;;;10.10;4.25;;;11.90;63.00;;;;;;5041937;28;20036;-76
2022/10/16 05:01:49;;;;;;;6.70;4.55;;;12.00;63.10;;;;;;5040680;28;20028;-75
2022/10/16 05:04:15;;;;;;;9.23;4.50;;;12.10;62.90;;;;;;5043300;28;20059;-76
2022/10/16 05:06:42;;;;;;;6.63;4.03;;;12.20;62.60;;;;;;5042291;28;20037;-76
2022/10/16 05:09:08;;;;;;;8.02;4.30;;;12.30;62.30;;;;;;5040513;28;20041;-76
2022/10/16 05:11:35;;;;;;;6.10;4.00;;;12.50;62.20;;;;;;5042221;28;20040;-75
2022/10/16 05:14:01;;;;;;;7.68;4.35;;;12.60;62.00;;;;;;5041913;28;20029;-75
2022/10/16 05:16:27;;;;;;;7.80;4.75;;;12.80;61.60;;;;;;5040928;28;20099;-75
2022/10/16 05:18:53;;;;;;;7.15;4.57;;;12.90;61.40;;;;;;5040301;28;20033;-75
2022/10/16 05:21:20;;;;;;;7.45;4.53;;;13.10;61.10;;;;;;5042358;28;20044;-75
2022/10/16 05:23:46;;;;;;;9.68;4.38;;;13.20;60.80;;;;;;5042323;28;20036;-74
2022/10/16 05:26:12;;;;;;;9.80;4.22;;;13.40;60.70;;;;;;5041592;28;20114;-76
2022/10/16 05:28:37;;;;;;;6.95;4.45;;;13.50;60.40;;;;;;5042365;28;20799;-76
2022/10/16 05:31:08;;;;;;;6.55;4.90;;;13.70;60.00;;;;;;5040286;28;20043;-76
2022/10/16 05:33:34;;;;;;;10.80;5.10;;;13.80;59.60;;;;;;5040388;28;20072;-77
2022/10/16 05:36:06;;;;;;;8.38;4.30;;;13.90;59.60;;;;;;5056850;28;20716;-77
2022/10/16 05:38:33;;;;;;;9.23;4.78;;;14.10;59.40;;;;;;5038109;28;20029;-77
2022/10/16 05:40:59;;;;;;;7.00;4.50;;;14.20;59.00;;;;;;5037586;28;20041;-79
2022/10/16 05:43:27;;;;;;;8.18;5.00;;;14.40;58.80;;;;;;5037567;28;20035;-84
2022/10/16 05:46:06;;;;;;;8.05;4.53;;;14.50;58.40;;;;;;5038834;28;20060;-81
2022/10/16 05:48:33;;;;;;;7.07;4.50;;;14.60;58.00;;;;;;5040355;28;20041;-81
2022/10/16 05:50:59;;;;;;;9.88;5.00;;;14.80;57.60;;;;;;5041419;28;20044;-77
2022/10/16 05:53:28;;;;;;;9.27;4.63;;;14.90;57.10;;;;;;5041550;28;20037;-76
2022/10/16 05:55:55;;;;;;;12.27;5.10;;;15.00;56.80;;;;;;5041047;28;20170;-78
2022/10/16 05:58:22;;;;;;;7.18;4.57;;;15.10;57.00;;;;;;5041485;28;20034;-77
2022/10/16 06:00:59;;;;;;;8.82;4.30;;;15.20;56.40;;;;;;5026601;28;20391;-77
2022/10/16 06:03:25;;;;;;;9.07;4.43;;;15.30;56.40;;;;;;5045360;28;20613;-78
2022/10/16 06:05:51;;;;;;;8.30;4.22;;;15.50;56.00;;;;;;5025127;28;20052;-79
2022/10/16 06:08:19;;;;;;;6.88;4.00;;;15.60;55.70;;;;;;5044140;28;20071;-81
2022/10/16 06:10:46;;;;;;;9.00;4.30;;;15.70;55.10;;;;;;5042387;28;20427;-76
2022/10/16 06:13:13;;;;;;;9.80;4.38;;;15.80;55.10;;;;;;5044968;28;20476;-81
2022/10/16 06:15:41;;;;;;;13.10;4.72;;;16.00;55.20;;;;;;5042290;28;20033;-79
2022/10/16 06:18:10;;;;;;;5.47;3.75;;;16.10;55.10;;;;;;5036573;28;20037;-81
2022/10/16 06:20:38;;;;;;;8.82;4.28;;;16.20;54.90;;;;;;5042177;28;20026;-80
2022/10/16 06:23:04;;;;;;;7.65;4.22;;;16.30;55.20;;;;;;5041661;28;20079;-81
2022/10/16 06:25:31;;;;;;;5.90;4.10;;;16.40;54.50;;;;;;5038151;28;20041;-80
2022/10/16 06:27:57;;;;;;;11.32;4.93;;;16.50;54.20;;;;;;5036531;28;20026;-79
2022/10/16 06:30:23;;;;;;;8.25;4.60;;;16.70;54.10;;;;;;5041604;28;20162;-79
2022/10/16 06:32:49;;;;;;;7.45;4.55;;;16.70;54.10;;;;;;5042213;28;20112;-78
2022/10/16 06:35:14;;;;;;;7.43;4.38;;;16.80;53.90;;;;;;5027510;28;20175;-79
2022/10/16 06:37:40;;;;;;;6.80;4.38;;;17.00;53.60;;;;;;5040507;28;20029;-79
2022/10/16 06:40:07;;;;;;;9.35;4.40;;;17.00;53.50;;;;;;5046422;28;20033;-77
2022/10/16 06:42:34;;;;;;;9.40;4.47;;;17.10;53.40;;;;;;5045531;28;20508;-79
2022/10/16 06:45:01;;;;;;;9.20;4.70;;;17.20;53.30;;;;;;5046568;28;20239;-81
2022/10/16 06:47:27;;;;;;;12.02;4.72;;;17.30;53.30;;;;;;5040409;28;20041;-78
2022/10/16 06:49:53;;;;;;;11.18;4.45;;;17.40;53.00;;;;;;5058170;28;20032;-82
2022/10/16 06:52:19;;;;;;;11.30;4.63;;;17.50;52.50;;;;;;5046924;28;20033;-79
2022/10/16 06:54:45;;;;;;;6.47;4.20;;;17.60;52.10;;;;;;5042234;28;20071;-84
2022/10/16 06:57:11;;;;;;;7.28;4.13;;;17.60;52.20;;;;;;5043743;28;20167;-81
2022/10/16 06:59:37;;;;;;;7.88;4.10;;;17.70;52.00;;;;;;5046905;28;20036;-87
2022/10/16 07:02:03;;;;;;;8.43;4.13;;;17.70;51.60;;;;;;5039837;28;20052;-83
2022/10/16 07:04:28;;;;;;;9.45;4.55;;;17.90;51.80;;;;;;5046447;28;20190;-82
2022/10/16 07:06:54;;;;;;;9.27;4.63;;;17.90;51.60;;;;;;5046355;28;20029;-83
2022/10/16 07:09:20;;;;;;;8.90;4.70;;;18.00;51.60;;;;;;5043447;28;20530;-80
2022/10/16 07:11:46;;;;;;;6.60;4.50;;;18.10;51.40;;;;;;5029194;28;20187;-84
2022/10/16 07:14:18;;;;;;;5.85;4.32;;;18.10;51.30;;;;;;5029616;28;20033;-81
2022/10/16 07:16:44;;;;;;;9.18;4.53;;;18.20;51.00;;;;;;5045675;28;20033;-91
2022/10/16 07:19:11;;;;;;;8.52;4.78;;;18.30;50.60;;;;;;5046567;28;20458;-81
2022/10/16 07:21:37;;;;;;;9.07;4.60;;;18.30;50.90;;;;;;5047263;28;20056;-84
2022/10/16 07:24:11;;;;;;;7.43;4.72;;;18.30;50.70;;;;;;5043809;28;20495;-82
2022/10/16 07:26:38;;;;;;;10.93;4.63;;;18.40;50.50;;;;;;5046234;28;20495;-85
2022/10/16 07:29:08;;;;;;;7.18;4.47;;;18.40;50.30;;;;;;5045953;28;20037;-79
2022/10/16 07:31:34;;;;;;;11.73;5.00;;;18.40;50.10;;;;;;5045725;28;20030;-79
2022/10/16 07:34:00;;;;;;;7.82;4.38;;;18.50;50.20;;;;;;5044123;28;20424;-78
2022/10/16 07:36:27;;;;;;;7.88;4.30;;;18.50;50.00;;;;;;5043193;28;20044;-77
2022/10/16 07:38:53;;;;;;;9.52;4.75;;;18.50;50.20;;;;;;5042555;28;20041;-84
2022/10/16 07:41:19;;;;;;;12.27;4.13;;;18.50;50.00;;;;;;5031311;28;20037;-80
2022/10/16 07:43:50;;;;;;;7.78;4.43;;;18.50;50.00;;;;;;5049546;28;20029;-88
2022/10/16 07:46:17;;;;;;;11.38;4.50;;;18.50;50.00;;;;;;5045676;28;20037;-86
2022/10/16 07:48:46;;;;;;;11.45;4.85;;;18.50;50.10;;;;;;5048383;28;20037;-86
2022/10/16 07:51:17;;;;;;;20.30;5.43;;;18.50;49.80;;;;;;5065961;28;20121;-80
2022/10/16 07:53:43;;;;;;;8.18;4.13;;;18.50;51.20;;;;;;5064833;28;20037;-83
2022/10/16 07:56:11;;;;;;;13.77;4.40;;;18.50;51.80;;;;;;5048342;28;20036;-79
2022/10/16 07:58:37;;;;;;;7.93;4.07;;;18.50;51.50;;;;;;5046781;28;20211;-88
2022/10/16 08:01:05;;;;;;;10.68;4.68;;;18.50;51.00;;;;;;5046325;28;20614;-90
2022/10/16 08:03:31;;;;;;;9.60;4.68;;;18.50;50.70;;;;;;5045830;28;20041;-86
2022/10/16 08:05:58;;;;;;;8.27;4.55;;;18.50;51.50;;;;;;5046724;28;20033;-86
2022/10/16 08:08:24;;;;;;;7.80;4.43;;;18.50;50.90;;;;;;5046884;28;20083;-86
2022/10/16 08:10:50;;;;;;;7.35;4.45;;;18.40;51.10;;;;;;5028696;28;20036;-85
2022/10/16 08:13:16;;;;;;;8.77;3.97;;;18.40;51.20;;;;;;5028892;28;20052;-85
2022/10/16 08:15:46;;;;;;;7.32;3.90;;;18.40;51.00;;;;;;5040020;28;20768;-81
2022/10/16 08:18:13;;;;;;;6.05;3.70;;;18.40;51.10;;;;;;5030129;28;20029;-83
2022/10/16 08:20:40;;;;;;;6.03;3.78;;;18.40;51.00;;;;;;5029643;28;21072;-84
2022/10/16 08:23:06;;;;;;;7.43;3.80;;;18.30;50.90;;;;;;5028130;28;20064;-84
2022/10/16 08:25:36;;;;;;;7.45;3.50;;;18.30;50.80;;;;;;5030944;28;20029;-80
2022/10/16 08:28:09;;;;;;;8.65;4.20;;;18.30;50.90;;;;;;5027889;28;20037;-79
2022/10/16 08:30:36;;;;;;;9.57;3.92;;;18.30;50.80;;;;;;5058178;28;20040;-72
2022/10/16 08:33:02;;;;;;;10.20;3.50;;;18.30;54.70;;;;;;5045626;28;20053;-82
2022/10/16 08:35:28;;;;;;;6.28;3.70;;;18.40;54.50;;;;;;5029291;28;20041;-82
2022/10/16 08:37:54;;;;;;;7.63;3.97;;;18.40;53.80;;;;;;5044704;28;20139;-84
2022/10/16 08:40:30;;;;;;;9.35;4.45;;;18.30;53.30;;;;;;5046728;28;20625;-86
2022/10/16 08:43:21;;;;;;;7.60;4.20;;;18.30;52.40;;;;;;5044954;28;20719;-86
2022/10/16 08:45:59;;;;;;;6.78;3.95;;;18.30;52.30;;;;;;5044441;28;20041;-79
2022/10/16 08:48:30;;;;;;;11.45;4.20;;;18.20;52.20;;;;;;5044457;28;20506;-86
2022/10/16 08:50:56;;;;;;;5.90;3.88;;;18.20;52.10;;;;;;5043767;28;20036;-87
2022/10/16 08:53:31;;;;;;;7.32;4.40;;;18.20;52.50;;;;;;5044361;28;20029;-80
2022/10/16 08:55:58;;;;;;;8.65;4.10;;;18.10;52.60;;;;;;5044972;28;20420;-83
2022/10/16 08:58:29;;;;;;;10.65;3.97;;;18.10;52.60;;;;;;5047672;28;20142;-77
2022/10/16 09:00:58;;;;;;;8.35;3.88;;;18.00;52.70;;;;;;5060835;28;20159;-76
2022/10/16 09:03:36;;;;;;;9.65;4.28;;;18.00;52.70;;;;;;5044841;28;20045;-77
2022/10/16 09:06:27;;;;;;;7.65;3.90;;;18.00;53.10;;;;;;5038799;28;20037;-76
2022/10/16 09:09:25;;;;;;;9.88;3.70;;;18.00;53.40;;;;;;5044144;28;20037;-75
2022/10/16 09:11:56;;;;;;;7.90;4.15;;;17.90;53.60;;;;;;4978365;28;20053;-75
2022/10/16 09:14:37;;;;;;;6.07;3.35;;;17.90;53.80;;;;;;4977657;28;20657;-76
2022/10/16 09:17:21;;;;;;;8.98;3.58;;;17.90;55.00;;;;;;4978619;28;20057;-76
2022/10/16 09:19:56;;;;;;;7.32;3.75;;;17.90;54.20;;;;;;4978963;28;20502;-75
2022/10/16 09:22:28;;;;;;;7.20;3.38;;;17.90;54.30;;;;;;4967041;28;20532;-75
2022/10/16 09:24:59;;;;;;;7.88;3.63;;;17.80;54.10;;;;;;4978436;28;20129;-76
2022/10/16 09:27:26;;;;;;;5.95;3.20;;;17.80;54.30;;;;;;4980059;28;20041;-75
2022/10/16 09:29:53;;;;;;;5.88;3.00;;;17.80;54.30;;;;;;4979557;28;20129;-75
2022/10/16 09:32:21;;;;;;;7.00;3.25;;;17.80;54.30;;;;;;4979865;28;20050;-77
2022/10/16 09:34:58;;;;;;;6.75;3.30;;;17.80;54.20;;;;;;4979659;28;20035;-76
2022/10/16 09:37:25;;;;;;;7.38;3.15;;;17.80;53.90;;;;;;4974991;28;20026;-78
2022/10/16 09:39:53;;;;;;;8.43;3.88;;;17.80;53.90;;;;;;4962194;28;20418;-75
2022/10/16 09:42:22;;;;;;;4.32;2.95;;;17.70;53.80;;;;;;4980150;28;20038;-78
2022/10/16 09:44:51;;;;;;;7.43;3.42;;;17.70;53.50;;;;;;4979051;28;20035;-76
2022/10/16 09:47:26;;;;;;;5.15;2.97;;;17.70;53.10;;;;;;4979695;28;20588;-76
2022/10/16 09:49:58;;;;;;;6.85;3.10;;;17.70;52.80;;;;;;5033901;28;20041;-75
2022/10/16 09:52:25;;;;;;;5.93;3.05;;;17.60;52.60;;;;;;5043226;28;20523;-76
2022/10/16 09:54:54;;;;;;;4.55;2.90;;;17.60;52.70;;;;;;5041363;28;20044;-77
2022/10/16 09:57:21;;;;;;;5.88;2.80;;;17.60;52.70;;;;;;5042323;28;20152;-77
2022/10/16 09:59:55;;;;;;;6.28;3.10;;;17.60;52.90;;;;;;5040783;28;20495;-75
2022/10/16 10:02:39;;;;;;;10.60;2.95;;;17.50;52.80;;;;;;5041447;28;20057;-77
2022/10/16 10:05:16;;;;;;;4.25;2.63;;;17.60;53.10;;;;;;5041859;28;20059;-75
2022/10/16 10:07:47;;;;;;;5.95;3.22;;;17.50;52.50;;;;;;5040196;28;20428;-76
2022/10/16 10:10:23;;;;;;;7.55;2.78;;;17.50;52.10;;;;;;5037991;28;20048;-76
2022/10/16 10:12:49;;;;;;;8.13;2.83;;;17.50;51.90;;;;;;5040872;28;20041;-75
2022/10/16 10:15:21;;;;;;;5.78;2.90;;;17.40;51.80;;;;;;5046517;28;20546;-76
2022/10/16 10:17:57;;;;;;;6.05;3.00;;;17.40;51.70;;;;;;5041096;28;20105;-75
2022/10/16 10:20:32;;;;;;;7.00;2.50;;;17.40;52.30;;;;;;5040711;28;20048;-76
2022/10/16 10:22:58;;;;;;;3.35;2.60;;;17.40;52.30;;;;;;5039792;28;20106;-79
2022/10/16 10:25:30;;;;;;;5.30;2.38;;;17.30;52.10;;;;;;5040865;28;20368;-79
2022/10/16 10:28:17;;;;;;;8.23;2.35;;;17.30;51.80;;;;;;5038157;28;20033;-79
2022/10/16 10:30:58;;;;;;;6.63;2.10;;;17.30;51.60;;;;;;5042343;28;20530;-80
2022/10/16 10:33:30;;;;;;;4.93;2.58;;;17.20;51.00;;;;;;5058332;28;20036;-77
2022/10/16 10:36:21;;;;;;;4.15;2.17;;;17.20;50.40;;;;;;5045807;28;20036;-77
2022/10/16 10:39:18;;;;;;;5.57;2.47;;;17.20;51.30;;;;;;5046762;28;20029;-78
2022/10/16 10:42:22;;;;;;;6.28;2.50;;;17.20;51.30;;;;;;5024853;28;20029;-77
2022/10/16 10:45:27;;;;;;;4.38;2.47;;;17.20;51.70;;;;;;5044720;28;20401;-78
2022/10/16 10:48:19;;;;;;;4.40;2.40;;;17.20;51.30;;;;;;4947847;28;20028;-77
2022/10/16 10:50:56;;;;;;;6.25;2.70;;;17.10;51.60;;;;;;4942282;28;20137;-78
2022/10/16 10:54:07;;;;;;;6.13;2.13;;;17.10;51.00;;;;;;4948654;28;20038;-77
2022/10/16 10:57:09;;;;;;;3.20;2.40;;;17.10;51.20;;;;;;4891742;29;20101;-77
2022/10/16 11:00:09;;;;;;;3.88;1.83;;;17.10;50.80;;;;;;4860702;29;20035;-77
2022/10/16 11:03:13;;;;;;;2.88;2.05;;;17.10;51.30;;;;;;4891577;29;20539;-78
2022/10/16 11:05:55;;;;;;;5.10;2.40;;;17.20;51.80;;;;;;4892111;29;20063;-77
2022/10/16 11:08:32;;;;;;;3.65;1.90;;;17.10;51.50;;;;;;4883796;29;20044;-78
2022/10/16 11:11:06;;;;;;;5.00;2.30;;;17.10;50.90;;;;;;4891523;29;20611;-77
2022/10/16 11:13:47;;;;;;;5.60;2.13;;;17.10;51.00;;;;;;4891740;29;20036;-78
2022/10/16 11:16:28;;;;;;;6.10;2.13;;;17.10;51.00;;;;;;4877026;29;20045;-81
2022/10/16 11:19:10;;;;;;;2.15;1.98;;;17.10;51.30;;;;;;4931345;28;20040;-80
2022/10/16 11:21:50;;;;;;;4.63;2.10;;;17.10;51.80;;;;;;4969100;28;20093;-78
2022/10/16 11:24:35;;;;;;;6.63;2.20;;;17.10;52.20;;;;;;4982086;28;20089;-84
2022/10/16 11:27:15;;;;;;;4.85;2.25;;;17.10;52.10;;;;;;4966338;28;20039;-83
2022/10/16 11:30:01;;;;;;;6.05;2.33;;;17.20;51.80;;;;;;4998510;28;20058;-77
2022/10/16 11:32:51;;;;;;;2.40;2.08;;;17.10;51.60;;;;;;5045646;28;20127;-79
2022/10/16 11:35:36;;;;;;;4.65;2.25;;;17.20;51.50;;;;;;5045254;28;20586;-76
2022/10/16 11:38:08;;;;;;;5.43;1.85;;;17.10;51.70;;;;;;5060288;28;20129;-76
2022/10/16 11:40:40;;;;;;;5.82;2.00;;;17.10;52.10;;;;;;5046440;28;20033;-75
2022/10/16 11:43:15;;;;;;;4.00;1.98;;;17.10;52.20;;;;;;5042354;28;20076;-75
2022/10/16 11:45:50;;;;;;;4.28;2.17;;;17.10;52.40;;;;;;5039994;28;20037;-76
2022/10/16 11:48:57;;;;;;;6.00;2.13;;;17.10;52.60;;;;;;5043005;28;20041;-76
2022/10/16 11:51:36;;;;;;;3.05;2.20;;;17.10;52.30;;;;;;5036869;28;20048;-75
2022/10/16 11:54:32;;;;;;;3.22;2.22;;;17.10;52.00;;;;;;5038363;28;20078;-76
2022/10/16 11:57:08;;;;;;;2.47;1.90;;;17.10;52.20;;;;;;5038902;28;20048;-76
2022/10/16 11:59:48;;;;;;;3.50;2.40;;;17.00;52.60;;;;;;5053191;28;20025;-76
2022/10/16 12:02:29;;;;;;;4.13;2.30;;;17.00;52.00;;;;;;5037664;28;20029;-76
2022/10/16 12:05:13;;;;;;;3.42;2.33;;;17.00;52.10;;;;;;5037080;28;20554;-80
2022/10/16 12:07:50;;;;;;;5.65;1.80;;;17.00;52.60;;;;;;5037140;28;20037;-76
2022/10/16 12:10:25;;;;;;;6.38;2.65;;;17.00;52.50;;;;;;5043561;28;20045;-76
2022/10/16 12:12:51;;;;;;;3.95;2.05;;;17.00;52.90;;;;;;5038266;28;21055;-76
2022/10/16 12:15:26;;;;;;;6.55;2.35;;;17.00;52.90;;;;;;5043611;28;20115;-77
2022/10/16 12:17:53;;;;;;;4.80;2.08;;;17.00;52.80;;;;;;5041331;28;20041;-77
2022/10/16 12:20:31;;;;;;;5.85;2.33;;;17.00;52.80;;;;;;5037621;28;20091;-77
2022/10/16 12:23:18;;;;;;;5.32;2.05;;;17.00;52.80;;;;;;5038567;28;20056;-77
2022/10/16 12:25:58;;;;;;;5.28;2.05;;;17.00;53.20;;;;;;5021516;28;21023;-80
2022/10/16 12:28:28;;;;;;;6.18;2.30;;;17.00;53.50;;;;;;5039584;28;20148;-78
2022/10/16 12:30:58;;;;;;;3.15;1.73;;;17.00;53.80;;;;;;5025647;28;20110;-84
2022/10/16 12:33:26;;;;;;;3.47;2.40;;;17.00;53.80;;;;;;5039574;28;20052;-83
2022/10/16 12:35:53;;;;;;;4.28;2.50;;;17.00;53.60;;;;;;5039147;28;20126;-85
2022/10/16 12:38:26;;;;;;;3.28;1.92;;;17.00;53.50;;;;;;5039797;28;20033;-84
2022/10/16 12:41:03;;;;;;;5.60;2.55;;;17.00;53.40;;;;;;5044482;28;20086;-82
2022/10/16 12:43:42;;;;;;;4.53;2.50;;;16.90;53.30;;;;;;5043505;28;20376;-82
2022/10/16 12:46:08;;;;;;;6.50;2.95;;;16.90;53.20;;;;;;5041225;28;20492;-84
2022/10/16 12:48:40;;;;;;;5.22;2.55;;;17.00;53.40;;;;;;5022789;28;20083;-86
2022/10/16 12:51:21;;;;;;;3.33;2.03;;;17.00;53.40;;;;;;5057210;28;20029;-85
2022/10/16 12:53:59;;;;;;;3.13;1.77;;;16.90;53.30;;;;;;5040778;28;20033;-85
2022/10/16 12:56:35;;;;;;;4.75;2.13;;;16.90;53.10;;;;;;5024904;28;20098;-83
2022/10/16 12:59:01;;;;;;;3.53;2.30;;;16.90;53.10;;;;;;5038951;28;20037;-86
2022/10/16 13:02:00;;;;;;;4.47;2.15;;;16.90;53.00;;;;;;5040887;28;20118;-85
2022/10/16 13:04:38;;;;;;;4.60;2.30;;;16.90;53.00;;;;;;5000723;28;20040;-85
2022/10/16 13:07:24;;;;;;;6.68;2.30;;;16.90;52.90;;;;;;5057343;28;21042;-83